sensor_id;sensor_type;location;lat;lon;timestamp;pressure;altitude;pressure_sealevel;temperature;humidity
75036;BME280;64247;51.540;5.854;2023-07-13T00:00:21;101125.56;;;13.86;94.87
75036;BME280;64247;51.540;5.854;2023-07-13T00:02:23;101127.94;;;13.88;95.52
75036;BME280;64247;51.540;5.854;2023-07-13T00:04:25;101129.97;;;13.91;95.45
75036;BME280;64247;51.540;5.854;2023-07-13T00:06:26;101132.31;;;13.92;95.63
75036;BME280;64247;51.540;5.854;2023-07-13T00:08:31;101128.81;;;13.92;95.75
75036;BME280;64247;51.540;5.854;2023-07-13T00:10:33;101133.13;;;13.93;95.90
75036;BME280;64247;51.540;5.854;2023-07-13T00:12:36;101138.22;;;13.95;96.29
75036;BME280;64247;51.540;5.854;2023-07-13T00:14:37;101135.84;;;13.93;96.34
75036;BME280;64247;51.540;5.854;2023-07-13T00:16:40;101116.69;;;13.89;96.66
75036;BME280;64247;51.540;5.854;2023-07-13T00:18:44;101131.03;;;13.86;96.86
75036;BME280;64247;51.540;5.854;2023-07-13T00:20:46;101133.31;;;13.84;97.13
75036;BME280;64247;51.540;5.854;2023-07-13T00:22:47;101131.31;;;13.81;97.45
75036;BME280;64247;51.540;5.854;2023-07-13T00:24:49;101133.22;;;13.81;97.51
75036;BME280;64247;51.540;5.854;2023-07-13T00:26:52;101142.56;;;13.80;97.72
75036;BME280;64247;51.540;5.854;2023-07-13T00:28:53;101139.06;;;13.79;97.52
75036;BME280;64247;51.540;5.854;2023-07-13T00:30:54;101143.28;;;13.76;97.55
75036;BME280;64247;51.540;5.854;2023-07-13T00:32:55;101134.28;;;13.76;97.94
75036;BME280;64247;51.540;5.854;2023-07-13T00:34:57;101140.91;;;13.75;97.89
75036;BME280;64247;51.540;5.854;2023-07-13T00:37:00;101148.66;;;13.73;98.13
75036;BME280;64247;51.540;5.854;2023-07-13T00:39:02;101154.72;;;13.66;98.16
75036;BME280;64247;51.540;5.854;2023-07-13T00:41:05;101143.28;;;13.60;98.33
75036;BME280;64247;51.540;5.854;2023-07-13T00:43:27;101138.94;;;13.56;98.43
75036;BME280;64247;51.540;5.854;2023-07-13T00:48:33;101134.00;;;13.45;99.37
75036;BME280;64247;51.540;5.854;2023-07-13T00:50:37;101141.38;;;13.45;99.66
75036;BME280;64247;51.540;5.854;2023-07-13T00:52:46;101141.03;;;13.47;100.00
75036;BME280;64247;51.540;5.854;2023-07-13T00:54:52;101142.88;;;13.42;100.00
75036;BME280;64247;51.540;5.854;2023-07-13T00:56:58;101141.38;;;13.45;100.00
75036;BME280;64247;51.540;5.854;2023-07-13T00:59:05;101143.78;;;13.47;100.00
75036;BME280;64247;51.540;5.854;2023-07-13T01:01:08;101143.84;;;13.50;100.00
75036;BME280;64247;51.540;5.854;2023-07-13T01:03:09;101157.81;;;13.49;100.00
75036;BME280;64247;51.540;5.854;2023-07-13T01:05:15;101157.41;;;13.47;100.00
75036;BME280;64247;51.540;5.854;2023-07-13T01:07:18;101158.19;;;13.47;100.00
75036;BME280;64247;51.540;5.854;2023-07-13T01:09:20;101160.03;;;13.43;100.00
75036;BME280;64247;51.540;5.854;2023-07-13T01:11:21;101158.47;;;13.42;100.00
75036;BME280;64247;51.540;5.854;2023-07-13T01:13:22;101151.78;;;13.39;100.00
75036;BME280;64247;51.540;5.854;2023-07-13T01:15:44;101152.00;;;13.34;100.00
75036;BME280;64247;51.540;5.854;2023-07-13T01:17:46;101155.09;;;13.33;100.00
75036;BME280;64247;51.540;5.854;2023-07-13T01:19:47;101152.81;;;13.35;100.00
75036;BME280;64247;51.540;5.854;2023-07-13T01:21:52;101155.16;;;13.36;100.00
75036;BME280;64247;51.540;5.854;2023-07-13T01:23:53;101160.97;;;13.35;100.00
75036;BME280;64247;51.540;5.854;2023-07-13T01:25:56;101150.06;;;13.35;100.00
75036;BME280;64247;51.540;5.854;2023-07-13T01:27:57;101157.13;;;13.36;100.00
75036;BME280;64247;51.540;5.854;2023-07-13T01:29:59;101161.09;;;13.38;100.00
75036;BME280;64247;51.540;5.854;2023-07-13T01:32:04;101152.09;;;13.38;100.00
75036;BME280;64247;51.540;5.854;2023-07-13T01:34:08;101149.47;;;13.41;100.00
75036;BME280;64247;51.540;5.854;2023-07-13T01:36:10;101147.56;;;13.42;100.00
75036;BME280;64247;51.540;5.854;2023-07-13T01:38:18;101146.81;;;13.45;100.00
75036;BME280;64247;51.540;5.854;2023-07-13T01:40:21;101142.72;;;13.51;100.00
75036;BME280;64247;51.540;5.854;2023-07-13T01:42:22;101138.41;;;13.50;100.00
75036;BME280;64247;51.540;5.854;2023-07-13T01:44:23;101143.84;;;13.50;100.00
75036;BME280;64247;51.540;5.854;2023-07-13T01:46:24;101149.63;;;13.49;100.00
75036;BME280;64247;51.540;5.854;2023-07-13T01:48:25;101148.09;;;13.48;100.00
75036;BME280;64247;51.540;5.854;2023-07-13T01:50:26;101143.03;;;13.50;100.00
75036;BME280;64247;51.540;5.854;2023-07-13T01:52:27;101138.72;;;13.49;100.00
75036;BME280;64247;51.540;5.854;2023-07-13T01:54:28;101141.56;;;13.52;100.00
75036;BME280;64247;51.540;5.854;2023-07-13T01:56:29;101142.72;;;13.51;100.00
75036;BME280;64247;51.540;5.854;2023-07-13T01:58:30;101139.63;;;13.53;100.00
75036;BME280;64247;51.540;5.854;2023-07-13T02:00:31;101144.38;;;13.56;100.00
75036;BME280;64247;51.540;5.854;2023-07-13T02:02:33;101147.19;;;13.59;100.00
75036;BME280;64247;51.540;5.854;2023-07-13T02:04:36;101130.81;;;13.59;100.00
75036;BME280;64247;51.540;5.854;2023-07-13T02:06:37;101150.25;;;13.58;100.00
75036;BME280;64247;51.540;5.854;2023-07-13T02:08:38;101147.19;;;13.59;100.00
75036;BME280;64247;51.540;5.854;2023-07-13T02:10:39;101152.97;;;13.58;100.00
75036;BME280;64247;51.540;5.854;2023-07-13T02:12:41;101151.91;;;13.63;100.00
75036;BME280;64247;51.540;5.854;2023-07-13T02:14:42;101153.59;;;13.67;100.00
75036;BME280;64247;51.540;5.854;2023-07-13T02:16:43;101152.38;;;13.65;100.00
75036;BME280;64247;51.540;5.854;2023-07-13T02:18:44;101156.16;;;13.60;100.00
75036;BME280;64247;51.540;5.854;2023-07-13T02:20:45;101154.56;;;13.59;100.00
75036;BME280;64247;51.540;5.854;2023-07-13T02:22:46;101149.91;;;13.59;100.00
75036;BME280;64247;51.540;5.854;2023-07-13T02:24:47;101156.44;;;13.55;100.00
75036;BME280;64247;51.540;5.854;2023-07-13T02:26:52;101141.91;;;13.51;100.00
75036;BME280;64247;51.540;5.854;2023-07-13T02:28:55;101166.28;;;13.59;100.00
75036;BME280;64247;51.540;5.854;2023-07-13T02:31:04;101154.56;;;13.59;100.00
75036;BME280;64247;51.540;5.854;2023-07-13T02:33:06;101151.84;;;13.59;100.00
75036;BME280;64247;51.540;5.854;2023-07-13T02:35:07;101156.06;;;13.56;100.00
75036;BME280;64247;51.540;5.854;2023-07-13T02:37:08;101159.84;;;13.52;100.00
75036;BME280;64247;51.540;5.854;2023-07-13T02:39:11;101157.94;;;13.52;100.00
75036;BME280;64247;51.540;5.854;2023-07-13T02:41:14;101163.72;;;13.51;100.00
75036;BME280;64247;51.540;5.854;2023-07-13T02:43:14;101163.91;;;13.42;100.00
75036;BME280;64247;51.540;5.854;2023-07-13T02:45:15;101163.72;;;13.35;100.00
75036;BME280;64247;51.540;5.854;2023-07-13T02:47:16;101160.44;;;13.29;100.00
75036;BME280;64247;51.540;5.854;2023-07-13T02:49:17;101158.84;;;13.28;100.00
75036;BME280;64247;51.540;5.854;2023-07-13T02:51:18;101155.69;;;13.26;100.00
75036;BME280;64247;51.540;5.854;2023-07-13T02:53:19;101158.31;;;13.22;100.00
75036;BME280;64247;51.540;5.854;2023-07-13T02:55:20;101146.19;;;13.20;100.00
75036;BME280;64247;51.540;5.854;2023-07-13T02:57:21;101153.94;;;13.18;100.00
75036;BME280;64247;51.540;5.854;2023-07-13T02:59:22;101156.69;;;13.18;100.00
75036;BME280;64247;51.540;5.854;2023-07-13T03:01:24;101160.63;;;13.20;100.00
75036;BME280;64247;51.540;5.854;2023-07-13T03:03:26;101161.78;;;13.19;100.00
75036;BME280;64247;51.540;5.854;2023-07-13T03:05:27;101165.63;;;13.18;100.00
75036;BME280;64247;51.540;5.854;2023-07-13T03:07:30;101167.22;;;13.19;100.00
75036;BME280;64247;51.540;5.854;2023-07-13T03:09:33;101166.09;;;13.20;100.00
75036;BME280;64247;51.540;5.854;2023-07-13T03:11:36;101179.72;;;13.20;100.00
75036;BME280;64247;51.540;5.854;2023-07-13T03:13:46;101171.44;;;13.17;100.00
75036;BME280;64247;51.540;5.854;2023-07-13T03:15:49;101179.09;;;13.11;100.00
75036;BME280;64247;51.540;5.854;2023-07-13T03:17:49;101175.44;;;13.07;100.00
75036;BME280;64247;51.540;5.854;2023-07-13T03:19:50;101175.34;;;13.03;100.00
75036;BME280;64247;51.540;5.854;2023-07-13T03:21:52;101174.50;;;12.99;100.00
75036;BME280;64247;51.540;5.854;2023-07-13T03:23:54;101172.81;;;12.94;100.00
75036;BME280;64247;51.540;5.854;2023-07-13T03:26:14;101168.03;;;12.91;100.00
75036;BME280;64247;51.540;5.854;2023-07-13T03:28:18;101172.97;;;12.86;100.00
75036;BME280;64247;51.540;5.854;2023-07-13T03:30:18;101171.75;;;12.83;100.00
75036;BME280;64247;51.540;5.854;2023-07-13T03:32:19;101177.88;;;12.80;100.00
75036;BME280;64247;51.540;5.854;2023-07-13T03:34:20;101180.50;;;12.76;100.00
75036;BME280;64247;51.540;5.854;2023-07-13T03:36:24;101183.59;;;12.75;100.00
75036;BME280;64247;51.540;5.854;2023-07-13T03:38:29;101181.19;;;12.73;100.00
75036;BME280;64247;51.540;5.854;2023-07-13T03:40:30;101184.72;;;12.74;100.00
75036;BME280;64247;51.540;5.854;2023-07-13T03:42:31;101187.44;;;12.74;100.00
75036;BME280;64247;51.540;5.854;2023-07-13T03:44:32;101189.72;;;12.72;100.00
75036;BME280;64247;51.540;5.854;2023-07-13T03:46:33;101191.66;;;12.71;100.00
75036;BME280;64247;51.540;5.854;2023-07-13T03:48:34;101199.84;;;12.71;100.00
75036;BME280;64247;51.540;5.854;2023-07-13T03:50:36;101193.66;;;12.74;100.00
75036;BME280;64247;51.540;5.854;2023-07-13T03:52:38;101199.56;;;12.76;100.00
75036;BME280;64247;51.540;5.854;2023-07-13T03:54:39;101207.28;;;12.74;100.00
75036;BME280;64247;51.540;5.854;2023-07-13T03:56:41;101205.81;;;12.77;100.00
75036;BME280;64247;51.540;5.854;2023-07-13T03:58:45;101207.50;;;12.81;100.00
75036;BME280;64247;51.540;5.854;2023-07-13T04:00:51;101206.34;;;12.82;100.00
75036;BME280;64247;51.540;5.854;2023-07-13T04:02:52;101209.88;;;12.83;100.00
75036;BME280;64247;51.540;5.854;2023-07-13T04:04:53;101205.22;;;12.83;100.00
75036;BME280;64247;51.540;5.854;2023-07-13T04:06:59;101202.22;;;12.89;100.00
75036;BME280;64247;51.540;5.854;2023-07-13T04:09:02;101207.09;;;12.95;100.00
75036;BME280;64247;51.540;5.854;2023-07-13T04:11:07;101215.72;;;12.97;100.00
75036;BME280;64247;51.540;5.854;2023-07-13T04:13:08;101206.84;;;13.01;100.00
75036;BME280;64247;51.540;5.854;2023-07-13T04:15:09;101210.56;;;13.08;100.00
75036;BME280;64247;51.540;5.854;2023-07-13T04:17:10;101207.56;;;13.13;100.00
75036;BME280;64247;51.540;5.854;2023-07-13T04:19:11;101214.69;;;13.18;100.00
75036;BME280;64247;51.540;5.854;2023-07-13T04:21:12;101207.75;;;13.21;100.00
75036;BME280;64247;51.540;5.854;2023-07-13T04:23:14;101208.66;;;13.25;100.00
75036;BME280;64247;51.540;5.854;2023-07-13T04:25:16;101211.78;;;13.27;100.00
75036;BME280;64247;51.540;5.854;2023-07-13T04:27:17;101203.63;;;13.27;100.00
75036;BME280;64247;51.540;5.854;2023-07-13T04:29:18;101204.84;;;13.29;100.00
75036;BME280;64247;51.540;5.854;2023-07-13T04:31:19;101213.56;;;13.35;100.00
75036;BME280;64247;51.540;5.854;2023-07-13T04:33:20;101218.09;;;13.43;100.00
75036;BME280;64247;51.540;5.854;2023-07-13T04:35:22;101216.78;;;13.53;100.00
75036;BME280;64247;51.540;5.854;2023-07-13T04:37:23;101216.84;;;13.57;100.00
75036;BME280;64247;51.540;5.854;2023-07-13T04:39:24;101218.81;;;13.56;100.00
75036;BME280;64247;51.540;5.854;2023-07-13T04:41:28;101215.72;;;13.58;100.00
75036;BME280;64247;51.540;5.854;2023-07-13T04:43:30;101219.66;;;13.60;100.00
75036;BME280;64247;51.540;5.854;2023-07-13T04:45:31;101226.56;;;13.70;100.00
75036;BME280;64247;51.540;5.854;2023-07-13T04:47:32;101222.31;;;13.73;100.00
75036;BME280;64247;51.540;5.854;2023-07-13T04:49:33;101220.13;;;13.79;100.00
75036;BME280;64247;51.540;5.854;2023-07-13T04:51:34;101219.84;;;13.84;100.00
75036;BME280;64247;51.540;5.854;2023-07-13T04:53:35;101227.13;;;13.96;100.00
75036;BME280;64247;51.540;5.854;2023-07-13T04:55:37;101231.97;;;14.02;100.00
75036;BME280;64247;51.540;5.854;2023-07-13T04:57:38;101231.41;;;14.13;100.00
75036;BME280;64247;51.540;5.854;2023-07-13T04:59:39;101229.38;;;14.25;100.00
75036;BME280;64247;51.540;5.854;2023-07-13T05:01:40;101236.94;;;14.32;100.00
75036;BME280;64247;51.540;5.854;2023-07-13T05:03:42;101235.44;;;14.35;100.00
75036;BME280;64247;51.540;5.854;2023-07-13T05:05:43;101237.88;;;14.40;100.00
75036;BME280;64247;51.540;5.854;2023-07-13T05:07:44;101252.47;;;14.48;100.00
75036;BME280;64247;51.540;5.854;2023-07-13T05:09:44;101253.78;;;14.54;100.00
75036;BME280;64247;51.540;5.854;2023-07-13T05:11:45;101254.63;;;14.58;100.00
75036;BME280;64247;51.540;5.854;2023-07-13T05:13:46;101247.66;;;14.61;100.00
75036;BME280;64247;51.540;5.854;2023-07-13T05:16:02;101257.63;;;14.69;100.00
75036;BME280;64247;51.540;5.854;2023-07-13T05:18:05;101260.09;;;14.74;100.00
75036;BME280;64247;51.540;5.854;2023-07-13T05:20:07;101258.63;;;14.80;100.00
75036;BME280;64247;51.540;5.854;2023-07-13T05:22:10;101248.63;;;14.88;100.00
75036;BME280;64247;51.540;5.854;2023-07-13T05:24:11;101255.09;;;14.99;100.00
75036;BME280;64247;51.540;5.854;2023-07-13T05:26:12;101252.56;;;15.10;100.00
75036;BME280;64247;51.540;5.854;2023-07-13T05:28:13;101253.22;;;15.23;100.00
75036;BME280;64247;51.540;5.854;2023-07-13T05:30:14;101254.56;;;15.33;100.00
75036;BME280;64247;51.540;5.854;2023-07-13T05:32:15;101251.94;;;15.40;100.00
75036;BME280;64247;51.540;5.854;2023-07-13T05:34:16;101267.97;;;15.42;100.00
75036;BME280;64247;51.540;5.854;2023-07-13T05:36:17;101268.78;;;15.42;100.00
75036;BME280;64247;51.540;5.854;2023-07-13T05:38:17;101269.69;;;15.50;100.00
75036;BME280;64247;51.540;5.854;2023-07-13T05:40:18;101277.69;;;15.59;100.00
75036;BME280;64247;51.540;5.854;2023-07-13T05:42:19;101269.16;;;15.64;100.00
75036;BME280;64247;51.540;5.854;2023-07-13T05:44:20;101277.06;;;15.69;100.00
75036;BME280;64247;51.540;5.854;2023-07-13T05:46:21;101272.91;;;15.79;100.00
75036;BME280;64247;51.540;5.854;2023-07-13T05:48:23;101275.38;;;15.84;100.00
75036;BME280;64247;51.540;5.854;2023-07-13T05:50:24;101277.84;;;15.93;100.00
75036;BME280;64247;51.540;5.854;2023-07-13T05:52:28;101283.44;;;16.00;100.00
75036;BME280;64247;51.540;5.854;2023-07-13T05:54:29;101279.22;;;16.06;100.00
75036;BME280;64247;51.540;5.854;2023-07-13T05:56:30;101272.72;;;16.14;100.00
75036;BME280;64247;51.540;5.854;2023-07-13T05:58:31;101273.56;;;16.19;100.00
75036;BME280;64247;51.540;5.854;2023-07-13T06:00:32;101283.09;;;16.28;100.00
75036;BME280;64247;51.540;5.854;2023-07-13T06:02:34;101272.22;;;16.36;100.00
75036;BME280;64247;51.540;5.854;2023-07-13T06:04:36;101294.69;;;16.45;100.00
75036;BME280;64247;51.540;5.854;2023-07-13T06:06:37;101286.88;;;16.47;100.00
75036;BME280;64247;51.540;5.854;2023-07-13T06:08:38;101298.25;;;16.49;100.00
75036;BME280;64247;51.540;5.854;2023-07-13T06:10:39;101290.94;;;16.57;100.00
75036;BME280;64247;51.540;5.854;2023-07-13T06:12:40;101286.31;;;16.65;100.00
75036;BME280;64247;51.540;5.854;2023-07-13T06:14:41;101292.31;;;16.74;100.00
75036;BME280;64247;51.540;5.854;2023-07-13T06:16:42;101293.94;;;16.78;100.00
75036;BME280;64247;51.540;5.854;2023-07-13T06:18:43;101297.88;;;16.81;100.00
75036;BME280;64247;51.540;5.854;2023-07-13T06:20:45;101299.47;;;16.82;100.00
75036;BME280;64247;51.540;5.854;2023-07-13T06:22:48;101302.97;;;16.83;100.00
75036;BME280;64247;51.540;5.854;2023-07-13T06:24:49;101310.06;;;16.84;100.00
75036;BME280;64247;51.540;5.854;2023-07-13T06:26:50;101308.94;;;16.88;100.00
75036;BME280;64247;51.540;5.854;2023-07-13T06:28:52;101317.22;;;16.92;100.00
75036;BME280;64247;51.540;5.854;2023-07-13T06:30:53;101315.31;;;16.92;100.00
75036;BME280;64247;51.540;5.854;2023-07-13T06:32:54;101310.25;;;16.98;100.00
75036;BME280;64247;51.540;5.854;2023-07-13T06:34:55;101302.16;;;17.09;100.00
75036;BME280;64247;51.540;5.854;2023-07-13T06:36:56;101317.25;;;17.26;100.00
75036;BME280;64247;51.540;5.854;2023-07-13T06:38:57;101321.25;;;17.36;100.00
75036;BME280;64247;51.540;5.854;2023-07-13T06:40:58;101313.06;;;17.39;99.61
75036;BME280;64247;51.540;5.854;2023-07-13T06:42:59;101310.75;;;17.42;98.81
75036;BME280;64247;51.540;5.854;2023-07-13T06:45:00;101313.91;;;17.47;98.47
75036;BME280;64247;51.540;5.854;2023-07-13T06:47:00;101319.47;;;17.51;98.88
75036;BME280;64247;51.540;5.854;2023-07-13T06:49:01;101318.31;;;17.55;98.84
75036;BME280;64247;51.540;5.854;2023-07-13T06:51:02;101312.06;;;17.59;97.30
75036;BME280;64247;51.540;5.854;2023-07-13T06:53:04;101309.00;;;17.67;97.09
75036;BME280;64247;51.540;5.854;2023-07-13T06:55:08;101320.06;;;17.75;97.49
75036;BME280;64247;51.540;5.854;2023-07-13T06:57:09;101313.44;;;17.79;97.41
75036;BME280;64247;51.540;5.854;2023-07-13T06:59:10;101313.13;;;17.88;96.78
75036;BME280;64247;51.540;5.854;2023-07-13T07:01:11;101317.59;;;18.03;95.30
75036;BME280;64247;51.540;5.854;2023-07-13T07:03:12;101327.09;;;18.13;94.83
75036;BME280;64247;51.540;5.854;2023-07-13T07:05:13;101313.38;;;18.17;93.81
75036;BME280;64247;51.540;5.854;2023-07-13T07:07:14;101326.72;;;18.18;94.72
75036;BME280;64247;51.540;5.854;2023-07-13T07:09:15;101327.88;;;18.17;94.30
75036;BME280;64247;51.540;5.854;2023-07-13T07:11:19;101330.59;;;18.14;93.20
75036;BME280;64247;51.540;5.854;2023-07-13T07:13:25;101329.41;;;18.08;93.32
75036;BME280;64247;51.540;5.854;2023-07-13T07:15:29;101329.38;;;18.04;93.78
75036;BME280;64247;51.540;5.854;2023-07-13T07:17:30;101328.91;;;17.98;94.66
75036;BME280;64247;51.540;5.854;2023-07-13T07:19:31;101331.59;;;17.95;94.59
75036;BME280;64247;51.540;5.854;2023-07-13T07:21:32;101338.25;;;17.90;94.62
75036;BME280;64247;51.540;5.854;2023-07-13T07:23:33;101339.44;;;17.89;96.52
75036;BME280;64247;51.540;5.854;2023-07-13T07:25:34;101343.03;;;17.97;95.28
75036;BME280;64247;51.540;5.854;2023-07-13T07:27:37;101331.34;;;18.03;94.45
75036;BME280;64247;51.540;5.854;2023-07-13T07:29:38;101346.69;;;18.08;93.28
75036;BME280;64247;51.540;5.854;2023-07-13T07:31:39;101341.97;;;18.09;94.17
75036;BME280;64247;51.540;5.854;2023-07-13T07:34:00;101344.75;;;18.12;93.46
75036;BME280;64247;51.540;5.854;2023-07-13T07:36:01;101349.44;;;18.12;93.44
75036;BME280;64247;51.540;5.854;2023-07-13T07:38:04;101351.44;;;18.18;93.63
75036;BME280;64247;51.540;5.854;2023-07-13T07:40:05;101345.25;;;18.29;93.54
75036;BME280;64247;51.540;5.854;2023-07-13T07:42:07;101341.41;;;18.41;93.14
75036;BME280;64247;51.540;5.854;2023-07-13T07:44:08;101343.03;;;18.49;92.24
75036;BME280;64247;51.540;5.854;2023-07-13T07:46:10;101349.75;;;18.55;91.35
75036;BME280;64247;51.540;5.854;2023-07-13T07:48:11;101343.88;;;18.60;91.18
75036;BME280;64247;51.540;5.854;2023-07-13T07:50:13;101347.44;;;18.64;91.06
75036;BME280;64247;51.540;5.854;2023-07-13T07:52:14;101346.28;;;18.69;89.98
75036;BME280;64247;51.540;5.854;2023-07-13T07:54:15;101351.41;;;18.74;90.37
75036;BME280;64247;51.540;5.854;2023-07-13T07:56:16;101351.84;;;18.76;90.10
75036;BME280;64247;51.540;5.854;2023-07-13T07:58:18;101353.78;;;18.76;90.84
75036;BME280;64247;51.540;5.854;2023-07-13T08:00:20;101352.97;;;18.72;90.03
75036;BME280;64247;51.540;5.854;2023-07-13T08:02:21;101358.47;;;18.68;89.51
75036;BME280;64247;51.540;5.854;2023-07-13T08:04:22;101358.06;;;18.70;90.51
75036;BME280;64247;51.540;5.854;2023-07-13T08:06:23;101352.59;;;18.77;91.00
75036;BME280;64247;51.540;5.854;2023-07-13T08:08:25;101355.81;;;18.86;90.51
75036;BME280;64247;51.540;5.854;2023-07-13T08:10:26;101358.22;;;18.95;91.31
75036;BME280;64247;51.540;5.854;2023-07-13T08:12:27;101357.84;;;18.96;89.75
75036;BME280;64247;51.540;5.854;2023-07-13T08:14:28;101361.78;;;18.99;89.28
75036;BME280;64247;51.540;5.854;2023-07-13T08:16:29;101350.00;;;19.06;88.73
75036;BME280;64247;51.540;5.854;2023-07-13T08:18:33;101357.16;;;19.25;90.19
75036;BME280;64247;51.540;5.854;2023-07-13T08:20:39;101354.06;;;19.44;89.58
75036;BME280;64247;51.540;5.854;2023-07-13T08:22:40;101360.78;;;19.65;85.37
75036;BME280;64247;51.540;5.854;2023-07-13T08:24:41;101358.88;;;19.84;85.52
75036;BME280;64247;51.540;5.854;2023-07-13T08:26:45;101353.38;;;19.95;85.41
75036;BME280;64247;51.540;5.854;2023-07-13T08:28:49;101356.91;;;19.95;84.11
75036;BME280;64247;51.540;5.854;2023-07-13T08:30:50;101348.66;;;19.84;84.53
75036;BME280;64247;51.540;5.854;2023-07-13T08:32:53;101354.97;;;20.03;83.01
75036;BME280;64247;51.540;5.854;2023-07-13T08:34:54;101360.06;;;20.30;80.66
75036;BME280;64247;51.540;5.854;2023-07-13T08:36:55;101342.69;;;20.54;81.41
75036;BME280;64247;51.540;5.854;2023-07-13T08:38:56;101340.22;;;20.93;77.67
75036;BME280;64247;51.540;5.854;2023-07-13T08:40:57;101353.59;;;21.01;74.91
75036;BME280;64247;51.540;5.854;2023-07-13T08:42:59;101355.19;;;20.92;76.53
75036;BME280;64247;51.540;5.854;2023-07-13T08:48:04;101361.50;;;20.99;78.44
75036;BME280;64247;51.540;5.854;2023-07-13T08:50:23;101361.47;;;20.96;77.36
75036;BME280;64247;51.540;5.854;2023-07-13T08:52:46;101363.41;;;21.10;75.05
75036;BME280;64247;51.540;5.854;2023-07-13T08:54:50;101360.72;;;20.92;76.20
75036;BME280;64247;51.540;5.854;2023-07-13T08:56:56;101358.75;;;20.99;78.29
75036;BME280;64247;51.540;5.854;2023-07-13T08:59:11;101347.31;;;20.94;74.65
75036;BME280;64247;51.540;5.854;2023-07-13T09:01:21;101354.69;;;21.22;75.10
75036;BME280;64247;51.540;5.854;2023-07-13T09:03:38;101348.97;;;21.55;72.18
75036;BME280;64247;51.540;5.854;2023-07-13T09:05:46;101355.59;;;21.72;71.02
75036;BME280;64247;51.540;5.854;2023-07-13T09:08:25;101348.09;;;21.72;71.10
75036;BME280;64247;51.540;5.854;2023-07-13T09:14:22;101339.88;;;21.58;69.94
75036;BME280;64247;51.540;5.854;2023-07-13T09:16:45;101357.38;;;21.33;70.61
75036;BME280;64247;51.540;5.854;2023-07-13T09:18:51;101338.44;;;21.31;71.43
75036;BME280;64247;51.540;5.854;2023-07-13T09:21:07;101347.38;;;21.61;72.20
75036;BME280;64247;51.540;5.854;2023-07-13T09:23:19;101332.84;;;22.02;71.01
75036;BME280;64247;51.540;5.854;2023-07-13T09:25:40;101353.25;;;22.16;68.42
75036;BME280;64247;51.540;5.854;2023-07-13T09:27:46;101345.94;;;21.94;68.42
75036;BME280;64247;51.540;5.854;2023-07-13T09:30:02;101347.41;;;21.50;70.26
75036;BME280;64247;51.540;5.854;2023-07-13T09:32:21;101355.47;;;21.19;72.59
75036;BME280;64247;51.540;5.854;2023-07-13T09:34:26;101350.84;;;20.94;72.07
75036;BME280;64247;51.540;5.854;2023-07-13T09:36:32;101350.91;;;20.76;72.14
75036;BME280;64247;51.540;5.854;2023-07-13T09:38:35;101359.22;;;20.62;75.56
75036;BME280;64247;51.540;5.854;2023-07-13T09:40:48;101358.44;;;20.54;75.50
75036;BME280;64247;51.540;5.854;2023-07-13T09:43:00;101352.88;;;20.83;75.93
75036;BME280;64247;51.540;5.854;2023-07-13T09:45:04;101358.97;;;21.30;74.19
75036;BME280;64247;51.540;5.854;2023-07-13T09:47:26;101345.94;;;21.31;73.82
75036;BME280;64247;51.540;5.854;2023-07-13T09:49:34;101342.66;;;21.58;72.69
75036;BME280;64247;51.540;5.854;2023-07-13T09:51:38;101353.06;;;21.92;71.66
75036;BME280;64247;51.540;5.854;2023-07-13T09:53:42;101343.78;;;22.17;67.98
75036;BME280;64247;51.540;5.854;2023-07-13T09:55:46;101348.38;;;22.30;65.46
75036;BME280;64247;51.540;5.854;2023-07-13T09:57:49;101356.16;;;22.47;67.60
75036;BME280;64247;51.540;5.854;2023-07-13T09:59:53;101348.00;;;22.28;66.57
75036;BME280;64247;51.540;5.854;2023-07-13T10:01:56;101351.94;;;22.31;65.68
75036;BME280;64247;51.540;5.854;2023-07-13T10:03:57;101342.44;;;22.32;63.82
75036;BME280;64247;51.540;5.854;2023-07-13T10:06:19;101354.63;;;22.76;66.08
75036;BME280;64247;51.540;5.854;2023-07-13T10:08:28;101348.56;;;22.89;63.96
75036;BME280;64247;51.540;5.854;2023-07-13T10:10:31;101347.13;;;22.77;62.38
75036;BME280;64247;51.540;5.854;2023-07-13T10:12:37;101347.69;;;22.96;61.25
75036;BME280;64247;51.540;5.854;2023-07-13T10:14:39;101353.44;;;22.77;63.13
75036;BME280;64247;51.540;5.854;2023-07-13T10:16:45;101351.75;;;22.87;63.55
75036;BME280;64247;51.540;5.854;2023-07-13T10:18:49;101353.81;;;22.80;61.89
75036;BME280;64247;51.540;5.854;2023-07-13T10:21:15;101343.72;;;22.97;64.76
75036;BME280;64247;51.540;5.854;2023-07-13T10:23:21;101353.03;;;22.79;63.74
75036;BME280;64247;51.540;5.854;2023-07-13T10:25:37;101355.19;;;22.60;63.29
75036;BME280;64247;51.540;5.854;2023-07-13T10:27:41;101356.03;;;22.57;62.71
75036;BME280;64247;51.540;5.854;2023-07-13T10:30:09;101366.53;;;22.73;64.46
75036;BME280;64247;51.540;5.854;2023-07-13T10:32:33;101366.28;;;22.95;66.13
75036;BME280;64247;51.540;5.854;2023-07-13T10:34:34;101352.31;;;23.06;61.80
75036;BME280;64247;51.540;5.854;2023-07-13T10:36:46;101352.66;;;23.08;62.30
75036;BME280;64247;51.540;5.854;2023-07-13T10:38:50;101339.31;;;23.34;61.13
75036;BME280;64247;51.540;5.854;2023-07-13T10:41:02;101343.31;;;23.57;59.79
75036;BME280;64247;51.540;5.854;2023-07-13T10:43:15;101346.78;;;23.88;61.44
75036;BME280;64247;51.540;5.854;2023-07-13T10:45:22;101340.00;;;24.16;58.62
75036;BME280;64247;51.540;5.854;2023-07-13T10:47:24;101348.88;;;24.08;58.20
75036;BME280;64247;51.540;5.854;2023-07-13T10:49:29;101339.53;;;23.98;57.74
75036;BME280;64247;51.540;5.854;2023-07-13T10:51:32;101347.50;;;23.68;57.36